sensor_id;sensor_type;location;lat;lon;timestamp;pressure;altitude;pressure_sealevel;temperature;humidity
18201;BME280;9226;47.858;9.594;2022-09-17T00:02:12;94843.69;;;12.33;72.54
18201;BME280;9226;47.858;9.594;2022-09-17T00:04:37;94845.38;;;12.34;72.45
18201;BME280;9226;47.858;9.594;2022-09-17T00:07:03;94850.28;;;12.28;72.95
18201;BME280;9226;47.858;9.594;2022-09-17T00:09:28;94848.50;;;12.29;72.71
18201;BME280;9226;47.858;9.594;2022-09-17T00:11:55;94848.56;;;12.19;72.88
18201;BME280;9226;47.858;9.594;2022-09-17T00:14:20;94848.00;;;12.16;72.74
18201;BME280;9226;47.858;9.594;2022-09-17T00:16:47;94840.03;;;12.16;72.94
18201;BME280;9226;47.858;9.594;2022-09-17T00:19:17;94844.50;;;12.15;73.00
18201;BME280;9226;47.858;9.594;2022-09-17T00:21:43;94840.03;;;12.16;73.18
18201;BME280;9226;47.858;9.594;2022-09-17T00:24:10;94843.97;;;12.11;73.10
18201;BME280;9226;47.858;9.594;2022-09-17T00:26:36;94845.25;;;12.07;73.12
18201;BME280;9226;47.858;9.594;2022-09-17T00:29:02;94844.97;;;12.10;72.91
18201;BME280;9226;47.858;9.594;2022-09-17T00:31:29;94851.97;;;12.11;72.91
18201;BME280;9226;47.858;9.594;2022-09-17T00:33:54;94864.53;;;12.09;72.79
18201;BME280;9226;47.858;9.594;2022-09-17T00:36:21;94859.22;;;12.09;72.94
18201;BME280;9226;47.858;9.594;2022-09-17T00:38:54;94860.16;;;12.00;72.98
18201;BME280;9226;47.858;9.594;2022-09-17T00:41:22;94855.13;;;11.97;73.09
18201;BME280;9226;47.858;9.594;2022-09-17T00:43:50;94859.13;;;12.01;72.80
18201;BME280;9226;47.858;9.594;2022-09-17T00:46:43;94855.94;;;11.98;72.82
18201;BME280;9226;47.858;9.594;2022-09-17T00:49:29;94851.75;;;11.95;72.71
18201;BME280;9226;47.858;9.594;2022-09-17T00:52:08;94846.44;;;11.95;72.95
18201;BME280;9226;47.858;9.594;2022-09-17T00:54:38;94850.78;;;11.96;72.70
18201;BME280;9226;47.858;9.594;2022-09-17T00:57:04;94844.47;;;11.97;72.57
18201;BME280;9226;47.858;9.594;2022-09-17T00:59:30;94850.63;;;11.98;72.29
18201;BME280;9226;47.858;9.594;2022-09-17T01:01:55;94860.44;;;11.97;72.62
18201;BME280;9226;47.858;9.594;2022-09-17T01:04:23;94854.13;;;11.88;72.60
18201;BME280;9226;47.858;9.594;2022-09-17T01:12:54;94863.81;;;11.80;72.06
18201;BME280;9226;47.858;9.594;2022-09-17T01:15:48;94857.81;;;11.77;72.25
18201;BME280;9226;47.858;9.594;2022-09-17T01:21:39;94871.41;;;11.74;72.46
18201;BME280;9226;47.858;9.594;2022-09-17T01:24:16;94870.28;;;11.77;72.47
18201;BME280;9226;47.858;9.594;2022-09-17T01:32:37;94886.81;;;11.71;72.72
18201;BME280;9226;47.858;9.594;2022-09-17T01:37:35;94882.31;;;11.71;72.75
18201;BME280;9226;47.858;9.594;2022-09-17T01:43:33;94879.25;;;11.66;72.58
18201;BME280;9226;47.858;9.594;2022-09-17T01:46:11;94879.56;;;11.63;72.83
18201;BME280;9226;47.858;9.594;2022-09-17T01:48:43;94881.91;;;11.66;72.54
18201;BME280;9226;47.858;9.594;2022-09-17T01:51:13;94875.22;;;11.62;72.56
18201;BME280;9226;47.858;9.594;2022-09-17T01:54:03;94864.91;;;11.49;72.71
18201;BME280;9226;47.858;9.594;2022-09-17T01:56:38;94863.09;;;11.50;72.65
18201;BME280;9226;47.858;9.594;2022-09-17T01:59:19;94871.19;;;11.58;72.75
18201;BME280;9226;47.858;9.594;2022-09-17T02:01:50;94878.63;;;11.54;73.38
18201;BME280;9226;47.858;9.594;2022-09-17T02:04:39;94881.28;;;11.54;72.77
18201;BME280;9226;47.858;9.594;2022-09-17T02:07:13;94875.09;;;11.54;72.96
18201;BME280;9226;47.858;9.594;2022-09-17T02:09:50;94881.81;;;11.58;72.57
18201;BME280;9226;47.858;9.594;2022-09-17T02:12:20;94888.00;;;11.49;73.11
18201;BME280;9226;47.858;9.594;2022-09-17T02:14:51;94889.38;;;11.53;72.87
18201;BME280;9226;47.858;9.594;2022-09-17T02:17:26;94884.94;;;11.44;73.25
18201;BME280;9226;47.858;9.594;2022-09-17T02:19:54;94886.72;;;11.53;72.54
18201;BME280;9226;47.858;9.594;2022-09-17T02:22:27;94883.09;;;11.44;72.50
18201;BME280;9226;47.858;9.594;2022-09-17T02:28:02;94879.19;;;11.48;72.16
18201;BME280;9226;47.858;9.594;2022-09-17T02:30:30;94877.34;;;11.49;72.18
18201;BME280;9226;47.858;9.594;2022-09-17T02:32:56;94873.44;;;11.43;72.45
18201;BME280;9226;47.858;9.594;2022-09-17T02:35:22;94883.25;;;11.43;72.21
18201;BME280;9226;47.858;9.594;2022-09-17T02:37:48;94885.22;;;11.40;72.08
18201;BME280;9226;47.858;9.594;2022-09-17T02:40:16;94880.72;;;11.41;71.99
18201;BME280;9226;47.858;9.594;2022-09-17T02:51:33;94879.22;;;11.29;71.92
18201;BME280;9226;47.858;9.594;2022-09-17T02:54:18;94873.63;;;11.32;72.06
18201;BME280;9226;47.858;9.594;2022-09-17T02:56:55;94877.00;;;11.34;71.94
18201;BME280;9226;47.858;9.594;2022-09-17T03:02:08;94878.53;;;11.27;72.40
18201;BME280;9226;47.858;9.594;2022-09-17T03:04:38;94880.06;;;11.29;72.22
18201;BME280;9226;47.858;9.594;2022-09-17T03:07:06;94872.09;;;11.29;72.23
18201;BME280;9226;47.858;9.594;2022-09-17T03:09:33;94878.78;;;11.33;72.35
18201;BME280;9226;47.858;9.594;2022-09-17T03:11:59;94878.94;;;11.32;72.67
18201;BME280;9226;47.858;9.594;2022-09-17T03:14:24;94878.50;;;11.36;72.62
18201;BME280;9226;47.858;9.594;2022-09-17T03:16:50;94873.22;;;11.27;72.92
18201;BME280;9226;47.858;9.594;2022-09-17T03:19:15;94877.72;;;11.26;73.10
18201;BME280;9226;47.858;9.594;2022-09-17T03:21:41;94880.22;;;11.28;73.30
18201;BME280;9226;47.858;9.594;2022-09-17T03:24:06;94879.94;;;11.21;73.80
18201;BME280;9226;47.858;9.594;2022-09-17T03:26:32;94887.50;;;11.16;73.80
18201;BME280;9226;47.858;9.594;2022-09-17T03:28:57;94883.28;;;11.23;73.86
18201;BME280;9226;47.858;9.594;2022-09-17T03:31:23;94878.38;;;11.28;73.79
18201;BME280;9226;47.858;9.594;2022-09-17T03:33:48;94871.25;;;11.29;73.81
18201;BME280;9226;47.858;9.594;2022-09-17T03:36:14;94867.09;;;11.26;73.68
18201;BME280;9226;47.858;9.594;2022-09-17T03:38:40;94867.78;;;11.28;73.59
18201;BME280;9226;47.858;9.594;2022-09-17T03:41:06;94870.72;;;11.25;73.80
18201;BME280;9226;47.858;9.594;2022-09-17T03:43:31;94874.63;;;11.21;73.62
18201;BME280;9226;47.858;9.594;2022-09-17T03:45:57;94881.47;;;11.23;73.57
18201;BME280;9226;47.858;9.594;2022-09-17T03:48:22;94869.03;;;11.24;73.24
18201;BME280;9226;47.858;9.594;2022-09-17T03:50:48;94866.94;;;11.18;73.71
18201;BME280;9226;47.858;9.594;2022-09-17T03:53:14;94868.06;;;11.15;73.52
18201;BME280;9226;47.858;9.594;2022-09-17T03:55:40;94874.06;;;11.17;73.18
18201;BME280;9226;47.858;9.594;2022-09-17T03:58:06;94881.50;;;11.14;73.37
18201;BME280;9226;47.858;9.594;2022-09-17T04:00:32;94883.88;;;11.07;73.70
18201;BME280;9226;47.858;9.594;2022-09-17T04:02:58;94878.13;;;11.02;73.65
18201;BME280;9226;47.858;9.594;2022-09-17T04:05:23;94880.25;;;10.98;73.58
18201;BME280;9226;47.858;9.594;2022-09-17T04:07:49;94878.56;;;10.97;73.73
18201;BME280;9226;47.858;9.594;2022-09-17T04:10:15;94886.97;;;10.93;74.07
18201;BME280;9226;47.858;9.594;2022-09-17T04:12:40;94887.25;;;10.99;73.69
18201;BME280;9226;47.858;9.594;2022-09-17T04:15:06;94879.97;;;10.92;73.61
18201;BME280;9226;47.858;9.594;2022-09-17T04:17:32;94874.13;;;10.88;73.87
18201;BME280;9226;47.858;9.594;2022-09-17T04:19:58;94877.88;;;10.95;73.59
18201;BME280;9226;47.858;9.594;2022-09-17T04:22:24;94880.53;;;10.95;73.70
18201;BME280;9226;47.858;9.594;2022-09-17T04:24:49;94883.72;;;10.99;73.36
18201;BME280;9226;47.858;9.594;2022-09-17T04:27:15;94891.56;;;10.81;74.32
18201;BME280;9226;47.858;9.594;2022-09-17T04:29:40;94881.94;;;10.90;73.65
18201;BME280;9226;47.858;9.594;2022-09-17T04:32:06;94882.38;;;10.85;73.51
18201;BME280;9226;47.858;9.594;2022-09-17T04:34:31;94883.75;;;10.89;73.41
18201;BME280;9226;47.858;9.594;2022-09-17T04:36:58;94898.97;;;10.87;73.58
18201;BME280;9226;47.858;9.594;2022-09-17T04:39:23;94894.50;;;10.88;73.48
18201;BME280;9226;47.858;9.594;2022-09-17T04:41:49;94900.66;;;10.88;73.56
18201;BME280;9226;47.858;9.594;2022-09-17T04:44:14;94899.25;;;10.84;73.35
18201;BME280;9226;47.858;9.594;2022-09-17T04:46:39;94906.81;;;10.79;73.51
18201;BME280;9226;47.858;9.594;2022-09-17T04:49:05;94901.50;;;10.79;73.44
18201;BME280;9226;47.858;9.594;2022-09-17T04:51:31;94914.47;;;10.82;73.62
18201;BME280;9226;47.858;9.594;2022-09-17T04:53:57;94921.31;;;10.75;73.59
18201;BME280;9226;47.858;9.594;2022-09-17T04:56:23;94927.16;;;10.78;73.53
18201;BME280;9226;47.858;9.594;2022-09-17T04:58:48;94920.06;;;10.79;73.45
18201;BME280;9226;47.858;9.594;2022-09-17T05:01:14;94919.34;;;10.67;74.06
18201;BME280;9226;47.858;9.594;2022-09-17T05:03:43;94921.72;;;10.70;73.79
18201;BME280;9226;47.858;9.594;2022-09-17T05:06:08;94929.38;;;10.54;74.68
18201;BME280;9226;47.858;9.594;2022-09-17T05:08:33;94933.34;;;10.69;73.76
18201;BME280;9226;47.858;9.594;2022-09-17T05:10:59;94932.75;;;10.65;74.23
18201;BME280;9226;47.858;9.594;2022-09-17T05:13:24;94928.44;;;10.64;74.38
18201;BME280;9226;47.858;9.594;2022-09-17T05:15:50;94926.47;;;10.66;73.88
18201;BME280;9226;47.858;9.594;2022-09-17T05:18:15;94941.66;;;10.55;74.78
18201;BME280;9226;47.858;9.594;2022-09-17T05:20:41;94929.41;;;10.63;74.34
18201;BME280;9226;47.858;9.594;2022-09-17T05:23:07;94937.22;;;10.65;74.38
18201;BME280;9226;47.858;9.594;2022-09-17T05:25:32;94932.19;;;10.62;74.69
18201;BME280;9226;47.858;9.594;2022-09-17T05:27:57;94940.84;;;10.64;74.49
18201;BME280;9226;47.858;9.594;2022-09-17T05:30:25;94944.63;;;10.61;74.71
18201;BME280;9226;47.858;9.594;2022-09-17T05:33:01;94936.09;;;10.58;74.38
18201;BME280;9226;47.858;9.594;2022-09-17T05:35:27;94944.16;;;10.56;74.17
18201;BME280;9226;47.858;9.594;2022-09-17T05:37:58;94946.59;;;10.69;73.84
18201;BME280;9226;47.858;9.594;2022-09-17T05:40:24;94949.81;;;10.73;73.68
18201;BME280;9226;47.858;9.594;2022-09-17T05:42:49;94947.28;;;10.81;73.31
18201;BME280;9226;47.858;9.594;2022-09-17T05:45:15;94951.91;;;10.69;74.03
18201;BME280;9226;47.858;9.594;2022-09-17T05:47:40;94942.53;;;10.75;73.31
18201;BME280;9226;47.858;9.594;2022-09-17T05:50:06;94950.22;;;10.78;73.23
18201;BME280;9226;47.858;9.594;2022-09-17T05:52:31;94960.56;;;10.81;73.06
18201;BME280;9226;47.858;9.594;2022-09-17T05:54:56;94959.28;;;10.75;72.66
18201;BME280;9226;47.858;9.594;2022-09-17T05:57:22;94964.91;;;10.82;72.51
18201;BME280;9226;47.858;9.594;2022-09-17T05:59:48;94963.75;;;10.84;72.91
18201;BME280;9226;47.858;9.594;2022-09-17T06:02:13;94967.84;;;10.89;72.46
18201;BME280;9226;47.858;9.594;2022-09-17T06:04:39;94966.56;;;10.83;72.41
18201;BME280;9226;47.858;9.594;2022-09-17T06:07:05;94974.69;;;10.91;72.19
18201;BME280;9226;47.858;9.594;2022-09-17T06:09:34;94982.75;;;10.80;72.57
18201;BME280;9226;47.858;9.594;2022-09-17T06:12:00;94985.31;;;10.91;72.13
18201;BME280;9226;47.858;9.594;2022-09-17T06:14:26;94981.38;;;10.95;71.97
18201;BME280;9226;47.858;9.594;2022-09-17T06:16:51;94981.38;;;10.95;71.90
18201;BME280;9226;47.858;9.594;2022-09-17T06:19:16;94983.63;;;11.00;71.87
18201;BME280;9226;47.858;9.594;2022-09-17T06:21:42;94994.66;;;10.95;71.50
18201;BME280;9226;47.858;9.594;2022-09-17T06:24:09;94999.56;;;11.10;71.77
18201;BME280;9226;47.858;9.594;2022-09-17T06:26:34;94999.56;;;11.19;71.57
18201;BME280;9226;47.858;9.594;2022-09-17T06:29:00;95001.78;;;11.24;71.03
18201;BME280;9226;47.858;9.594;2022-09-17T06:31:25;95007.13;;;11.34;71.12
18201;BME280;9226;47.858;9.594;2022-09-17T06:33:50;95015.38;;;11.40;70.74
18201;BME280;9226;47.858;9.594;2022-09-17T06:36:16;95027.50;;;11.43;70.09
18201;BME280;9226;47.858;9.594;2022-09-17T06:38:42;95025.84;;;11.42;69.79
18201;BME280;9226;47.858;9.594;2022-09-17T06:41:07;95031.31;;;11.40;69.66
18201;BME280;9226;47.858;9.594;2022-09-17T06:43:33;95029.19;;;11.54;69.39
18201;BME280;9226;47.858;9.594;2022-09-17T06:46:00;95040.53;;;11.56;69.14
18201;BME280;9226;47.858;9.594;2022-09-17T06:48:27;95038.16;;;11.63;69.30
18201;BME280;9226;47.858;9.594;2022-09-17T06:50:54;95048.50;;;11.66;69.52
18201;BME280;9226;47.858;9.594;2022-09-17T06:53:20;95043.16;;;11.75;69.45
18201;BME280;9226;47.858;9.594;2022-09-17T06:55:46;95050.97;;;11.87;69.45
18201;BME280;9226;47.858;9.594;2022-09-17T06:58:11;95051.66;;;11.89;69.17
18201;BME280;9226;47.858;9.594;2022-09-17T07:00:37;95047.63;;;12.04;69.33
18201;BME280;9226;47.858;9.594;2022-09-17T07:03:03;95045.34;;;12.09;69.04
18201;BME280;9226;47.858;9.594;2022-09-17T07:05:28;95051.63;;;12.28;69.23
18201;BME280;9226;47.858;9.594;2022-09-17T07:07:54;95048.63;;;12.41;69.63
18201;BME280;9226;47.858;9.594;2022-09-17T07:10:20;95053.13;;;12.78;69.14
18201;BME280;9226;47.858;9.594;2022-09-17T07:12:47;95053.13;;;13.24;70.04
18201;BME280;9226;47.858;9.594;2022-09-17T07:15:13;95047.84;;;14.30;69.34
18201;BME280;9226;47.858;9.594;2022-09-17T07:17:40;95049.88;;;15.72;66.93
18201;BME280;9226;47.858;9.594;2022-09-17T07:20:09;95053.03;;;17.06;59.04
18201;BME280;9226;47.858;9.594;2022-09-17T07:22:35;95049.56;;;18.30;54.87
18201;BME280;9226;47.858;9.594;2022-09-17T07:25:01;95042.31;;;18.98;50.36
18201;BME280;9226;47.858;9.594;2022-09-17T07:27:30;95042.47;;;19.48;48.74
18201;BME280;9226;47.858;9.594;2022-09-17T07:29:56;95045.53;;;19.81;48.67
18201;BME280;9226;47.858;9.594;2022-09-17T07:32:22;95046.78;;;20.00;47.37
18201;BME280;9226;47.858;9.594;2022-09-17T07:34:48;95044.88;;;19.94;46.48
18201;BME280;9226;47.858;9.594;2022-09-17T07:37:14;95049.00;;;20.68;48.00
18201;BME280;9226;47.858;9.594;2022-09-17T07:39:40;95049.81;;;21.45;46.12
18201;BME280;9226;47.858;9.594;2022-09-17T07:42:07;95047.53;;;22.37;44.48
18201;BME280;9226;47.858;9.594;2022-09-17T07:44:32;95041.03;;;22.99;41.83
18201;BME280;9226;47.858;9.594;2022-09-17T07:46:57;95038.34;;;23.57;40.85
18201;BME280;9226;47.858;9.594;2022-09-17T07:49:23;95041.34;;;24.45;39.11
18201;BME280;9226;47.858;9.594;2022-09-17T07:51:48;95047.28;;;25.29;37.97
18201;BME280;9226;47.858;9.594;2022-09-17T07:54:14;95048.19;;;25.41;35.91
18201;BME280;9226;47.858;9.594;2022-09-17T07:56:39;95058.59;;;25.44;35.24
18201;BME280;9226;47.858;9.594;2022-09-17T07:59:04;95053.41;;;25.73;33.82
18201;BME280;9226;47.858;9.594;2022-09-17T08:01:33;95051.50;;;26.34;32.79
18201;BME280;9226;47.858;9.594;2022-09-17T08:03:59;95044.50;;;26.93;32.02
18201;BME280;9226;47.858;9.594;2022-09-17T08:06:25;95045.03;;;27.54;31.14
18201;BME280;9226;47.858;9.594;2022-09-17T08:08:52;95037.75;;;27.71;29.76
18201;BME280;9226;47.858;9.594;2022-09-17T08:11:20;95035.50;;;28.09;30.56
18201;BME280;9226;47.858;9.594;2022-09-17T08:13:47;95041.78;;;27.69;29.76
18201;BME280;9226;47.858;9.594;2022-09-17T08:16:13;95036.34;;;26.81;30.35
18201;BME280;9226;47.858;9.594;2022-09-17T08:18:40;95036.78;;;26.00;30.85
18201;BME280;9226;47.858;9.594;2022-09-17T08:21:09;95039.81;;;24.81;32.54
18201;BME280;9226;47.858;9.594;2022-09-17T08:23:36;95046.31;;;23.91;33.56
18201;BME280;9226;47.858;9.594;2022-09-17T08:26:03;95049.91;;;23.78;34.66
18201;BME280;9226;47.858;9.594;2022-09-17T08:28:30;95049.50;;;23.74;35.03
18201;BME280;9226;47.858;9.594;2022-09-17T08:31:01;95042.69;;;24.35;33.83
18201;BME280;9226;47.858;9.594;2022-09-17T08:33:30;95043.38;;;25.18;32.06
18201;BME280;9226;47.858;9.594;2022-09-17T08:35:56;95033.50;;;25.91;32.39
18201;BME280;9226;47.858;9.594;2022-09-17T08:38:24;95045.06;;;26.59;31.34
18201;BME280;9226;47.858;9.594;2022-09-17T08:46:20;95039.94;;;27.98;28.60
18201;BME280;9226;47.858;9.594;2022-09-17T08:52:17;95047.88;;;26.52;28.83
18201;BME280;9226;47.858;9.594;2022-09-17T09:05:22;95036.38;;;24.10;32.89
18201;BME280;9226;47.858;9.594;2022-09-17T09:07:55;95042.94;;;24.59;32.38
18201;BME280;9226;47.858;9.594;2022-09-17T09:10:31;95032.75;;;24.48;31.59
18201;BME280;9226;47.858;9.594;2022-09-17T09:13:03;95030.72;;;24.68;31.21
18201;BME280;9226;47.858;9.594;2022-09-17T09:15:44;95045.88;;;24.26;30.93
18201;BME280;9226;47.858;9.594;2022-09-17T09:18:19;95031.69;;;23.98;31.96
18201;BME280;9226;47.858;9.594;2022-09-17T09:20:53;95035.94;;;23.81;32.62
18201;BME280;9226;47.858;9.594;2022-09-17T09:23:42;95035.81;;;22.97;33.65
18201;BME280;9226;47.858;9.594;2022-09-17T09:28:45;95038.97;;;22.00;34.78
18201;BME280;9226;47.858;9.594;2022-09-17T09:34:08;95045.56;;;20.53;36.32
18201;BME280;9226;47.858;9.594;2022-09-17T09:36:39;95051.47;;;20.13;37.25
18201;BME280;9226;47.858;9.594;2022-09-17T09:39:14;95048.84;;;19.62;37.97
18201;BME280;9226;47.858;9.594;2022-09-17T09:41:48;95043.94;;;19.14;38.61
18201;BME280;9226;47.858;9.594;2022-09-17T09:44:16;95051.47;;;18.36;40.04
18201;BME280;9226;47.858;9.594;2022-09-17T09:52:41;95062.81;;;17.62;41.24
18201;BME280;9226;47.858;9.594;2022-09-17T09:57:48;95065.97;;;17.34;41.69
18201;BME280;9226;47.858;9.594;2022-09-17T10:00:30;95053.19;;;17.13;42.74
18201;BME280;9226;47.858;9.594;2022-09-17T10:03:03;95055.50;;;17.16;42.98
18201;BME280;9226;47.858;9.594;2022-09-17T10:05:33;95053.44;;;17.26;43.87
18201;BME280;9226;47.858;9.594;2022-09-17T10:07:59;95058.91;;;17.64;42.97
18201;BME280;9226;47.858;9.594;2022-09-17T10:10:24;95056.34;;;17.71;42.52
18201;BME280;9226;47.858;9.594;2022-09-17T10:13:04;95051.41;;;17.83;41.49
18201;BME280;9226;47.858;9.594;2022-09-17T10:15:30;95052.19;;;17.92;41.47
18201;BME280;9226;47.858;9.594;2022-09-17T10:18:19;95058.84;;;17.49;42.37
18201;BME280;9226;47.858;9.594;2022-09-17T10:20:51;95065.88;;;17.50;42.60
18201;BME280;9226;47.858;9.594;2022-09-17T10:23:19;95073.06;;;17.18;43.26
18201;BME280;9226;47.858;9.594;2022-09-17T10:25:45;95069.81;;;17.00;45.55
18201;BME280;9226;47.858;9.594;2022-09-17T10:28:44;95082.22;;;16.85;45.38
18201;BME280;9226;47.858;9.594;2022-09-17T10:31:12;95082.44;;;16.75;46.87
18201;BME280;9226;47.858;9.594;2022-09-17T10:33:55;95086.00;;;16.59;48.55
18201;BME280;9226;47.858;9.594;2022-09-17T10:36:42;95098.75;;;16.32;49.72
18201;BME280;9226;47.858;9.594;2022-09-17T10:39:37;95099.06;;;15.96;53.54
18201;BME280;9226;47.858;9.594;2022-09-17T10:42:14;95095.91;;;16.01;51.00
18201;BME280;9226;47.858;9.594;2022-09-17T10:44:51;95091.38;;;15.77;53.33
18201;BME280;9226;47.858;9.594;2022-09-17T10:47:35;95092.81;;;15.63;55.14
18201;BME280;9226;47.858;9.594;2022-09-17T10:52:34;95080.59;;;15.60;54.74
18201;BME280;9226;47.858;9.594;2022-09-17T11:20:04;95088.81;;;17.84;49.32
18201;BME280;9226;47.858;9.594;2022-09-17T11:25:45;95082.94;;;17.58;50.60
18201;BME280;9226;47.858;9.594;2022-09-17T11:36:12;95081.53;;;17.70;52.98
18201;BME280;9226;47.858;9.594;2022-09-17T11:38:48;95081.16;;;17.73;53.54
18201;BME280;9226;47.858;9.594;2022-09-17T11:41:21;95064.00;;;17.82;51.66
18201;BME280;9226;47.858;9.594;2022-09-17T11:44:07;95068.34;;;17.83;50.14
18201;BME280;9226;47.858;9.594;2022-09-17T11:46:41;95066.66;;;17.90;49.78
18201;BME280;9226;47.858;9.594;2022-09-17T11:49:41;95069.44;;;17.97;51.39
18201;BME280;9226;47.858;9.594;2022-09-17T11:52:23;95069.25;;;18.22;51.02
18201;BME280;9226;47.858;9.594;2022-09-17T11:57:25;95059.41;;;18.52;49.93
18201;BME280;9226;47.858;9.594;2022-09-17T12:00:05;95061.25;;;18.67;49.73
18201;BME280;9226;47.858;9.594;2022-09-17T12:03:08;95055.53;;;18.70;47.54
18201;BME280;9226;47.858;9.594;2022-09-17T12:05:34;95057.41;;;18.84;47.84
18201;BME280;9226;47.858;9.594;2022-09-17T12:08:24;95053.50;;;19.02;46.34
18201;BME280;9226;47.858;9.594;2022-09-17T12:13:41;95055.56;;;19.00;46.09
18201;BME280;9226;47.858;9.594;2022-09-17T12:16:20;95049.31;;;18.99;46.16
18201;BME280;9226;47.858;9.594;2022-09-17T12:19:07;95044.06;;;18.91;46.02
18201;BME280;9226;47.858;9.594;2022-09-17T12:21:45;95030.03;;;18.80;45.75
18201;BME280;9226;47.858;9.594;2022-09-17T12:24:22;95030.31;;;19.01;46.20
18201;BME280;9226;47.858;9.594;2022-09-17T12:35:54;95043.13;;;18.98;44.63
18201;BME280;9226;47.858;9.594;2022-09-17T12:49:44;95077.03;;;17.31;49.53
18201;BME280;9226;47.858;9.594;2022-09-17T13:00:58;95048.19;;;16.45;52.78
18201;BME280;9226;47.858;9.594;2022-09-17T13:03:42;95045.09;;;16.65;54.80
18201;BME280;9226;47.858;9.594;2022-09-17T13:06:33;95039.72;;;16.81;54.20
18201;BME280;9226;47.858;9.594;2022-09-17T13:09:33;95057.50;;;16.66;55.17
18201;BME280;9226;47.858;9.594;2022-09-17T13:12:10;95051.25;;;16.98;53.34
18201;BME280;9226;47.858;9.594;2022-09-17T13:15:03;95058.50;;;16.73;54.37
18201;BME280;9226;47.858;9.594;2022-09-17T13:22:49;95066.19;;;16.68;51.83
18201;BME280;9226;47.858;9.594;2022-09-17T13:25:17;95052.50;;;16.63;51.82
18201;BME280;9226;47.858;9.594;2022-09-17T13:27:44;95046.34;;;16.54;51.47
18201;BME280;9226;47.858;9.594;2022-09-17T13:30:12;95043.06;;;16.19;51.89
18201;BME280;9226;47.858;9.594;2022-09-17T13:37:57;95028.50;;;16.05;51.54
18201;BME280;9226;47.858;9.594;2022-09-17T13:40:31;95027.31;;;16.24;51.29
18201;BME280;9226;47.858;9.594;2022-09-17T13:45:26;95027.66;;;16.13;52.26
18201;BME280;9226;47.858;9.594;2022-09-17T13:47:59;95026.47;;;16.32;51.21
18201;BME280;9226;47.858;9.594;2022-09-17T13:52:52;95048.50;;;16.51;50.63
18201;BME280;9226;47.858;9.594;2022-09-17T13:55:34;95038.13;;;16.48;50.46
18201;BME280;9226;47.858;9.594;2022-09-17T13:58:09;95050.84;;;16.45;50.71
18201;BME280;9226;47.858;9.594;2022-09-17T14:00:55;95058.59;;;16.32;50.75
18201;BME280;9226;47.858;9.594;2022-09-17T14:05:57;95055.56;;;16.19;50.24
18201;BME280;9226;47.858;9.594;2022-09-17T14:11:00;95062.63;;;16.12;50.94
18201;BME280;9226;47.858;9.594;2022-09-17T14:13:41;95055.25;;;16.14;51.05
18201;BME280;9226;47.858;9.594;2022-09-17T14:16:24;95060.09;;;15.85;51.63
18201;BME280;9226;47.858;9.594;2022-09-17T14:24:35;95070.63;;;16.28;51.81
18201;BME280;9226;47.858;9.594;2022-09-17T14:27:14;95063.59;;;16.27;52.33
18201;BME280;9226;47.858;9.594;2022-09-17T14:32:54;95065.25;;;16.44;52.33
18201;BME280;9226;47.858;9.594;2022-09-17T14:37:59;95056.69;;;16.66;51.22
18201;BME280;9226;47.858;9.594;2022-09-17T14:40:27;95045.75;;;16.75;50.62
18201;BME280;9226;47.858;9.594;2022-09-17T14:42:55;95056.53;;;16.59;49.97
18201;BME280;9226;47.858;9.594;2022-09-17T14:45:28;95050.66;;;16.55;49.60
18201;BME280;9226;47.858;9.594;2022-09-17T14:50:44;95056.84;;;16.64;50.19
18201;BME280;9226;47.858;9.594;2022-09-17T14:53:17;95056.34;;;16.60;49.09
18201;BME280;9226;47.858;9.594;2022-09-17T14:55:46;95063.38;;;16.61;49.76
18201;BME280;9226;47.858;9.594;2022-09-17T14:58:29;95057.22;;;16.53;49.76
18201;BME280;9226;47.858;9.594;2022-09-17T15:00:55;95058.38;;;16.50;50.07
18201;BME280;9226;47.858;9.594;2022-09-17T15:03:22;95059.53;;;16.48;50.67
18201;BME280;9226;47.858;9.594;2022-09-17T15:05:48;95059.56;;;16.39;50.20
18201;BME280;9226;47.858;9.594;2022-09-17T15:08:21;95057.22;;;16.36;50.39
18201;BME280;9226;47.858;9.594;2022-09-17T15:10:58;95066.97;;;16.29;50.83
18201;BME280;9226;47.858;9.594;2022-09-17T15:16:03;95063.94;;;16.24;49.35
18201;BME280;9226;47.858;9.594;2022-09-17T15:18:41;95071.16;;;16.15;49.21
18201;BME280;9226;47.858;9.594;2022-09-17T15:21:24;95065.63;;;16.08;49.07
18201;BME280;9226;47.858;9.594;2022-09-17T15:23:53;95067.13;;;16.03;48.83
18201;BME280;9226;47.858;9.594;2022-09-17T15:26:29;95075.00;;;16.04;49.21
18201;BME280;9226;47.858;9.594;2022-09-17T15:28:56;95071.94;;;15.66;49.39
18201;BME280;9226;47.858;9.594;2022-09-17T15:31:22;95075.59;;;15.57;49.70
18201;BME280;9226;47.858;9.594;2022-09-17T15:33:48;95076.94;;;15.53;49.54
18201;BME280;9226;47.858;9.594;2022-09-17T15:36:16;95076.72;;;15.38;49.35
18201;BME280;9226;47.858;9.594;2022-09-17T15:38:42;95095.06;;;15.25;49.21
18201;BME280;9226;47.858;9.594;2022-09-17T15:41:32;95092.69;;;15.13;48.81
18201;BME280;9226;47.858;9.594;2022-09-17T15:44:25;95096.34;;;15.12;50.19
18201;BME280;9226;47.858;9.594;2022-09-17T15:46:51;95092.81;;;15.04;51.74
18201;BME280;9226;47.858;9.594;2022-09-17T15:49:33;95098.13;;;14.95;52.65
18201;BME280;9226;47.858;9.594;2022-09-17T15:52:27;95102.69;;;14.77;55.55
18201;BME280;9226;47.858;9.594;2022-09-17T15:54:56;95099.03;;;14.78;54.76
18201;BME280;9226;47.858;9.594;2022-09-17T15:57:21;95096.53;;;14.76;54.91
18201;BME280;9226;47.858;9.594;2022-09-17T15:59:48;95096.41;;;14.86;54.87
18201;BME280;9226;47.858;9.594;2022-09-17T16:02:28;95103.50;;;14.69;54.80
18201;BME280;9226;47.858;9.594;2022-09-17T16:07:39;95112.34;;;14.70;54.93
18201;BME280;9226;47.858;9.594;2022-09-17T16:10:06;95117.44;;;14.37;55.91
18201;BME280;9226;47.858;9.594;2022-09-17T16:12:33;95112.69;;;14.48;56.12
18201;BME280;9226;47.858;9.594;2022-09-17T16:14:59;95104.38;;;14.52;55.33
18201;BME280;9226;47.858;9.594;2022-09-17T16:17:26;95104.09;;;14.37;56.55
18201;BME280;9226;47.858;9.594;2022-09-17T16:19:55;95109.28;;;14.38;56.32
18201;BME280;9226;47.858;9.594;2022-09-17T16:22:21;95105.75;;;14.29;56.23
18201;BME280;9226;47.858;9.594;2022-09-17T16:24:47;95100.31;;;14.21;55.89
18201;BME280;9226;47.858;9.594;2022-09-17T16:27:22;95091.03;;;14.25;56.17
18201;BME280;9226;47.858;9.594;2022-09-17T16:29:50;95099.03;;;14.25;56.14